sensor_id;sensor_type;location;lat;lon;timestamp;temperature;humidity
19928;DHT22;10126;50.876;4.470;2022-12-18T00:00:21;-3.20;99.90
19928;DHT22;10126;50.876;4.470;2022-12-18T00:02:21;-3.30;99.90
19928;DHT22;10126;50.876;4.470;2022-12-18T00:04:23;-3.30;99.90
19928;DHT22;10126;50.876;4.470;2022-12-18T00:06:26;-3.30;99.90
19928;DHT22;10126;50.876;4.470;2022-12-18T00:08:27;-3.20;99.90
19928;DHT22;10126;50.876;4.470;2022-12-18T00:10:28;-3.10;99.90
19928;DHT22;10126;50.876;4.470;2022-12-18T00:12:29;-3.20;99.90
19928;DHT22;10126;50.876;4.470;2022-12-18T00:14:30;-3.20;99.90
19928;DHT22;10126;50.876;4.470;2022-12-18T00:16:31;-3.30;99.90
19928;DHT22;10126;50.876;4.470;2022-12-18T00:18:33;-3.20;99.90
19928;DHT22;10126;50.876;4.470;2022-12-18T00:20:38;-3.20;99.90
19928;DHT22;10126;50.876;4.470;2022-12-18T00:22:39;-3.20;99.90
19928;DHT22;10126;50.876;4.470;2022-12-18T00:24:39;-3.20;99.90
19928;DHT22;10126;50.876;4.470;2022-12-18T00:26:40;-3.20;99.90
19928;DHT22;10126;50.876;4.470;2022-12-18T00:28:42;-3.10;99.90
19928;DHT22;10126;50.876;4.470;2022-12-18T00:30:42;-3.10;99.90
19928;DHT22;10126;50.876;4.470;2022-12-18T00:32:43;-3.10;99.90
19928;DHT22;10126;50.876;4.470;2022-12-18T00:34:43;-3.10;99.90
19928;DHT22;10126;50.876;4.470;2022-12-18T00:36:46;-3.10;99.90
19928;DHT22;10126;50.876;4.470;2022-12-18T00:38:48;-3.00;99.90
19928;DHT22;10126;50.876;4.470;2022-12-18T00:40:48;-2.90;99.90
19928;DHT22;10126;50.876;4.470;2022-12-18T00:42:49;-2.90;99.90
19928;DHT22;10126;50.876;4.470;2022-12-18T00:44:55;-2.90;99.90
19928;DHT22;10126;50.876;4.470;2022-12-18T00:46:59;-2.90;99.90
19928;DHT22;10126;50.876;4.470;2022-12-18T00:49:00;-3.00;99.90
19928;DHT22;10126;50.876;4.470;2022-12-18T00:51:00;-2.90;99.90
19928;DHT22;10126;50.876;4.470;2022-12-18T00:53:01;-2.70;99.90
19928;DHT22;10126;50.876;4.470;2022-12-18T00:55:02;-2.70;99.90
19928;DHT22;10126;50.876;4.470;2022-12-18T00:57:03;-2.70;99.90
19928;DHT22;10126;50.876;4.470;2022-12-18T00:59:03;-2.70;99.90
19928;DHT22;10126;50.876;4.470;2022-12-18T01:01:05;-2.80;99.90
19928;DHT22;10126;50.876;4.470;2022-12-18T01:03:05;-2.80;99.90
19928;DHT22;10126;50.876;4.470;2022-12-18T01:05:07;-2.80;99.90
19928;DHT22;10126;50.876;4.470;2022-12-18T01:07:08;-2.80;99.90
19928;DHT22;10126;50.876;4.470;2022-12-18T01:09:08;-2.90;99.90
19928;DHT22;10126;50.876;4.470;2022-12-18T01:11:17;-2.90;99.90
19928;DHT22;10126;50.876;4.470;2022-12-18T01:13:18;-2.80;99.90
19928;DHT22;10126;50.876;4.470;2022-12-18T01:15:19;-2.70;99.90
19928;DHT22;10126;50.876;4.470;2022-12-18T01:17:20;-2.60;99.90
19928;DHT22;10126;50.876;4.470;2022-12-18T01:19:20;-2.60;99.90
19928;DHT22;10126;50.876;4.470;2022-12-18T01:21:22;-2.80;99.90
19928;DHT22;10126;50.876;4.470;2022-12-18T01:23:23;-2.80;99.90
19928;DHT22;10126;50.876;4.470;2022-12-18T01:25:24;-2.80;99.90
19928;DHT22;10126;50.876;4.470;2022-12-18T01:27:24;-2.90;99.90
19928;DHT22;10126;50.876;4.470;2022-12-18T01:29:25;-3.00;99.90
19928;DHT22;10126;50.876;4.470;2022-12-18T01:31:28;-3.00;99.90
19928;DHT22;10126;50.876;4.470;2022-12-18T01:33:29;-2.90;99.90
19928;DHT22;10126;50.876;4.470;2022-12-18T01:35:29;-2.90;99.90
19928;DHT22;10126;50.876;4.470;2022-12-18T01:37:30;-2.70;99.90
19928;DHT22;10126;50.876;4.470;2022-12-18T01:39:31;-2.60;99.90
19928;DHT22;10126;50.876;4.470;2022-12-18T01:41:33;-2.70;99.90
19928;DHT22;10126;50.876;4.470;2022-12-18T01:43:57;-2.80;99.90
19928;DHT22;10126;50.876;4.470;2022-12-18T01:45:59;-2.80;99.90
19928;DHT22;10126;50.876;4.470;2022-12-18T01:48:05;-2.80;99.90
19928;DHT22;10126;50.876;4.470;2022-12-18T01:50:20;-2.90;99.90
19928;DHT22;10126;50.876;4.470;2022-12-18T01:52:21;-3.00;99.90
19928;DHT22;10126;50.876;4.470;2022-12-18T01:54:22;-3.10;99.90
19928;DHT22;10126;50.876;4.470;2022-12-18T01:56:23;-3.20;99.90
19928;DHT22;10126;50.876;4.470;2022-12-18T01:58:36;-3.20;99.90
19928;DHT22;10126;50.876;4.470;2022-12-18T02:00:39;-3.00;99.90
19928;DHT22;10126;50.876;4.470;2022-12-18T02:02:41;-2.90;99.90
19928;DHT22;10126;50.876;4.470;2022-12-18T02:04:43;-3.00;99.90
19928;DHT22;10126;50.876;4.470;2022-12-18T02:06:44;-3.10;99.90
19928;DHT22;10126;50.876;4.470;2022-12-18T02:18:00;-3.00;99.90
19928;DHT22;10126;50.876;4.470;2022-12-18T02:20:22;-3.10;99.90
19928;DHT22;10126;50.876;4.470;2022-12-18T02:27:22;-3.40;99.90
19928;DHT22;10126;50.876;4.470;2022-12-18T02:29:48;-3.50;99.90
19928;DHT22;10126;50.876;4.470;2022-12-18T02:31:56;-3.60;99.90
19928;DHT22;10126;50.876;4.470;2022-12-18T02:34:00;-3.60;99.90
19928;DHT22;10126;50.876;4.470;2022-12-18T02:36:01;-3.70;99.90
19928;DHT22;10126;50.876;4.470;2022-12-18T02:38:04;-3.60;99.90
19928;DHT22;10126;50.876;4.470;2022-12-18T02:40:06;-3.70;99.90
19928;DHT22;10126;50.876;4.470;2022-12-18T02:42:07;-3.60;99.90
19928;DHT22;10126;50.876;4.470;2022-12-18T02:44:10;-3.60;99.90
19928;DHT22;10126;50.876;4.470;2022-12-18T02:46:42;-3.80;99.90
19928;DHT22;10126;50.876;4.470;2022-12-18T02:48:44;-3.80;99.90
19928;DHT22;10126;50.876;4.470;2022-12-18T02:50:56;-3.80;99.90
19928;DHT22;10126;50.876;4.470;2022-12-18T02:53:21;-3.90;99.90
19928;DHT22;10126;50.876;4.470;2022-12-18T02:56:03;-3.90;99.90
19928;DHT22;10126;50.876;4.470;2022-12-18T03:00:18;-3.90;99.90
19928;DHT22;10126;50.876;4.470;2022-12-18T03:02:33;-3.90;99.90
19928;DHT22;10126;50.876;4.470;2022-12-18T03:04:42;-3.90;99.90
19928;DHT22;10126;50.876;4.470;2022-12-18T03:06:48;-3.90;99.90
19928;DHT22;10126;50.876;4.470;2022-12-18T03:08:52;-3.90;99.90
19928;DHT22;10126;50.876;4.470;2022-12-18T03:11:08;-3.80;99.90
19928;DHT22;10126;50.876;4.470;2022-12-18T03:13:16;-3.70;99.90
19928;DHT22;10126;50.876;4.470;2022-12-18T03:15:30;-3.60;99.90
19928;DHT22;10126;50.876;4.470;2022-12-18T03:17:32;-3.40;99.90
19928;DHT22;10126;50.876;4.470;2022-12-18T03:19:34;-3.50;99.90
19928;DHT22;10126;50.876;4.470;2022-12-18T03:21:44;-3.50;99.90
19928;DHT22;10126;50.876;4.470;2022-12-18T03:23:48;-3.70;99.90
19928;DHT22;10126;50.876;4.470;2022-12-18T03:25:51;-3.80;99.90
19928;DHT22;10126;50.876;4.470;2022-12-18T03:27:56;-3.90;99.90
19928;DHT22;10126;50.876;4.470;2022-12-18T03:30:08;-4.00;99.90
19928;DHT22;10126;50.876;4.470;2022-12-18T03:32:15;-4.00;99.90
19928;DHT22;10126;50.876;4.470;2022-12-18T03:34:22;-4.00;99.90
19928;DHT22;10126;50.876;4.470;2022-12-18T03:36:23;-4.00;99.90
19928;DHT22;10126;50.876;4.470;2022-12-18T03:38:24;-3.90;99.90
19928;DHT22;10126;50.876;4.470;2022-12-18T03:43:20;-4.00;99.90
19928;DHT22;10126;50.876;4.470;2022-12-18T03:45:31;-4.00;99.90
19928;DHT22;10126;50.876;4.470;2022-12-18T03:50:14;-4.00;99.90
19928;DHT22;10126;50.876;4.470;2022-12-18T03:54:25;-4.00;99.90
19928;DHT22;10126;50.876;4.470;2022-12-18T03:56:30;-3.90;99.90
19928;DHT22;10126;50.876;4.470;2022-12-18T03:58:33;-4.00;99.90
19928;DHT22;10126;50.876;4.470;2022-12-18T04:00:35;-3.80;99.90
19928;DHT22;10126;50.876;4.470;2022-12-18T04:02:39;-3.70;99.90
19928;DHT22;10126;50.876;4.470;2022-12-18T04:04:43;-3.80;99.90
19928;DHT22;10126;50.876;4.470;2022-12-18T04:06:46;-4.00;99.90
19928;DHT22;10126;50.876;4.470;2022-12-18T04:08:48;-4.10;99.90
19928;DHT22;10126;50.876;4.470;2022-12-18T04:10:50;-4.10;99.90
19928;DHT22;10126;50.876;4.470;2022-12-18T04:12:55;-4.20;99.90
19928;DHT22;10126;50.876;4.470;2022-12-18T04:14:56;-4.30;99.90
19928;DHT22;10126;50.876;4.470;2022-12-18T04:16:57;-4.40;99.90
19928;DHT22;10126;50.876;4.470;2022-12-18T04:18:57;-4.50;99.90
19928;DHT22;10126;50.876;4.470;2022-12-18T04:20:58;-4.50;99.90
19928;DHT22;10126;50.876;4.470;2022-12-18T04:22:58;-4.60;99.90
19928;DHT22;10126;50.876;4.470;2022-12-18T04:24:59;-4.60;99.90
19928;DHT22;10126;50.876;4.470;2022-12-18T04:27:00;-4.50;99.90
19928;DHT22;10126;50.876;4.470;2022-12-18T04:29:01;-4.50;99.90
19928;DHT22;10126;50.876;4.470;2022-12-18T04:31:01;-4.50;99.90
19928;DHT22;10126;50.876;4.470;2022-12-18T04:33:02;-4.50;99.90
19928;DHT22;10126;50.876;4.470;2022-12-18T04:35:03;-4.50;99.90
19928;DHT22;10126;50.876;4.470;2022-12-18T04:37:06;-4.30;99.90
19928;DHT22;10126;50.876;4.470;2022-12-18T04:39:07;-4.40;99.90
19928;DHT22;10126;50.876;4.470;2022-12-18T04:41:08;-4.50;99.90
19928;DHT22;10126;50.876;4.470;2022-12-18T04:43:08;-4.60;99.90
19928;DHT22;10126;50.876;4.470;2022-12-18T04:45:09;-4.70;99.90
19928;DHT22;10126;50.876;4.470;2022-12-18T04:47:10;-4.80;99.90
19928;DHT22;10126;50.876;4.470;2022-12-18T04:49:10;-4.90;99.90
19928;DHT22;10126;50.876;4.470;2022-12-18T04:51:11;-4.80;99.90
19928;DHT22;10126;50.876;4.470;2022-12-18T04:53:12;-4.90;99.90
19928;DHT22;10126;50.876;4.470;2022-12-18T04:55:12;-4.80;99.90
19928;DHT22;10126;50.876;4.470;2022-12-18T04:57:13;-4.80;99.90
19928;DHT22;10126;50.876;4.470;2022-12-18T04:59:14;-4.70;99.90
19928;DHT22;10126;50.876;4.470;2022-12-18T05:01:16;-4.80;99.90
19928;DHT22;10126;50.876;4.470;2022-12-18T05:03:17;-4.80;99.90
19928;DHT22;10126;50.876;4.470;2022-12-18T05:05:18;-4.70;99.90
19928;DHT22;10126;50.876;4.470;2022-12-18T05:07:18;-4.80;99.90
19928;DHT22;10126;50.876;4.470;2022-12-18T05:09:19;-5.00;99.90
19928;DHT22;10126;50.876;4.470;2022-12-18T05:11:20;-5.00;99.90
19928;DHT22;10126;50.876;4.470;2022-12-18T05:13:20;-4.80;99.90
19928;DHT22;10126;50.876;4.470;2022-12-18T05:15:21;-4.70;99.90
19928;DHT22;10126;50.876;4.470;2022-12-18T05:17:21;-4.60;99.90
19928;DHT22;10126;50.876;4.470;2022-12-18T05:19:22;-4.60;99.90
19928;DHT22;10126;50.876;4.470;2022-12-18T05:21:23;-4.40;99.90
19928;DHT22;10126;50.876;4.470;2022-12-18T05:23:24;-4.50;99.90
19928;DHT22;10126;50.876;4.470;2022-12-18T05:25:25;-4.60;99.90
19928;DHT22;10126;50.876;4.470;2022-12-18T05:27:25;-4.60;99.90
19928;DHT22;10126;50.876;4.470;2022-12-18T05:29:26;-4.70;99.90
19928;DHT22;10126;50.876;4.470;2022-12-18T05:31:27;-4.80;99.90
19928;DHT22;10126;50.876;4.470;2022-12-18T05:33:31;-4.80;99.90
19928;DHT22;10126;50.876;4.470;2022-12-18T05:35:32;-4.80;99.90
19928;DHT22;10126;50.876;4.470;2022-12-18T05:37:32;-4.80;99.90
19928;DHT22;10126;50.876;4.470;2022-12-18T05:39:33;-4.80;99.90
19928;DHT22;10126;50.876;4.470;2022-12-18T05:41:34;-4.70;99.90
19928;DHT22;10126;50.876;4.470;2022-12-18T05:43:36;-4.70;99.90
19928;DHT22;10126;50.876;4.470;2022-12-18T05:45:38;-4.80;99.90
19928;DHT22;10126;50.876;4.470;2022-12-18T05:47:38;-4.70;99.90
19928;DHT22;10126;50.876;4.470;2022-12-18T05:49:39;-4.60;99.90
19928;DHT22;10126;50.876;4.470;2022-12-18T05:51:40;-4.50;99.90
19928;DHT22;10126;50.876;4.470;2022-12-18T05:53:42;-4.60;99.90
19928;DHT22;10126;50.876;4.470;2022-12-18T05:55:43;-4.60;99.90
19928;DHT22;10126;50.876;4.470;2022-12-18T05:57:44;-4.60;99.90
19928;DHT22;10126;50.876;4.470;2022-12-18T05:59:45;-4.60;99.90
19928;DHT22;10126;50.876;4.470;2022-12-18T06:01:46;-4.60;99.90
19928;DHT22;10126;50.876;4.470;2022-12-18T06:03:46;-4.70;99.90
19928;DHT22;10126;50.876;4.470;2022-12-18T06:05:47;-4.60;99.90
19928;DHT22;10126;50.876;4.470;2022-12-18T06:07:48;-4.60;99.90
19928;DHT22;10126;50.876;4.470;2022-12-18T06:09:49;-4.60;99.90
19928;DHT22;10126;50.876;4.470;2022-12-18T06:11:51;-4.60;99.90
19928;DHT22;10126;50.876;4.470;2022-12-18T06:13:53;-4.60;99.90
19928;DHT22;10126;50.876;4.470;2022-12-18T06:15:54;-4.50;99.90
19928;DHT22;10126;50.876;4.470;2022-12-18T06:17:55;-4.50;99.90
19928;DHT22;10126;50.876;4.470;2022-12-18T06:19:56;-4.50;99.90
19928;DHT22;10126;50.876;4.470;2022-12-18T06:21:57;-4.60;99.90
19928;DHT22;10126;50.876;4.470;2022-12-18T06:23:59;-4.60;99.90
19928;DHT22;10126;50.876;4.470;2022-12-18T06:26:08;-4.60;99.90
19928;DHT22;10126;50.876;4.470;2022-12-18T06:28:09;-4.60;99.90
19928;DHT22;10126;50.876;4.470;2022-12-18T06:30:10;-4.60;99.90
19928;DHT22;10126;50.876;4.470;2022-12-18T06:32:11;-4.60;99.90
19928;DHT22;10126;50.876;4.470;2022-12-18T06:34:11;-4.50;99.90
19928;DHT22;10126;50.876;4.470;2022-12-18T06:36:13;-4.40;99.90
19928;DHT22;10126;50.876;4.470;2022-12-18T06:38:13;-4.40;99.90
19928;DHT22;10126;50.876;4.470;2022-12-18T06:40:14;-4.20;99.90
19928;DHT22;10126;50.876;4.470;2022-12-18T06:42:15;-4.00;99.90
19928;DHT22;10126;50.876;4.470;2022-12-18T06:44:16;-3.90;99.90
19928;DHT22;10126;50.876;4.470;2022-12-18T06:46:16;-3.70;99.90
19928;DHT22;10126;50.876;4.470;2022-12-18T06:48:17;-3.80;99.90
19928;DHT22;10126;50.876;4.470;2022-12-18T06:50:17;-3.90;99.90
19928;DHT22;10126;50.876;4.470;2022-12-18T06:52:18;-3.90;99.90
19928;DHT22;10126;50.876;4.470;2022-12-18T06:54:19;-4.00;99.90
19928;DHT22;10126;50.876;4.470;2022-12-18T06:56:19;-3.80;99.90
19928;DHT22;10126;50.876;4.470;2022-12-18T06:58:20;-3.90;99.90
19928;DHT22;10126;50.876;4.470;2022-12-18T07:00:21;-3.70;99.90
19928;DHT22;10126;50.876;4.470;2022-12-18T07:02:21;-3.60;99.90
19928;DHT22;10126;50.876;4.470;2022-12-18T07:04:26;-3.60;99.90
19928;DHT22;10126;50.876;4.470;2022-12-18T07:06:27;-3.70;99.90
19928;DHT22;10126;50.876;4.470;2022-12-18T07:08:29;-3.60;99.90
19928;DHT22;10126;50.876;4.470;2022-12-18T07:10:30;-3.60;99.90
19928;DHT22;10126;50.876;4.470;2022-12-18T07:12:31;-3.70;99.90
19928;DHT22;10126;50.876;4.470;2022-12-18T07:14:31;-3.80;99.90
19928;DHT22;10126;50.876;4.470;2022-12-18T07:16:32;-3.80;99.90
19928;DHT22;10126;50.876;4.470;2022-12-18T07:18:32;-3.70;99.90
19928;DHT22;10126;50.876;4.470;2022-12-18T07:20:33;-3.90;99.90
19928;DHT22;10126;50.876;4.470;2022-12-18T07:22:34;-4.00;99.90
19928;DHT22;10126;50.876;4.470;2022-12-18T07:24:34;-4.10;99.90
19928;DHT22;10126;50.876;4.470;2022-12-18T07:26:35;-4.00;99.90
19928;DHT22;10126;50.876;4.470;2022-12-18T07:28:37;-4.10;99.90
19928;DHT22;10126;50.876;4.470;2022-12-18T07:30:38;-3.90;99.90
19928;DHT22;10126;50.876;4.470;2022-12-18T07:32:38;-3.80;99.90
19928;DHT22;10126;50.876;4.470;2022-12-18T07:34:39;-3.80;99.90
19928;DHT22;10126;50.876;4.470;2022-12-18T07:36:40;-3.80;99.90
19928;DHT22;10126;50.876;4.470;2022-12-18T07:38:41;-3.90;99.90
19928;DHT22;10126;50.876;4.470;2022-12-18T07:40:41;-3.90;99.90
19928;DHT22;10126;50.876;4.470;2022-12-18T07:42:42;-3.90;99.90
19928;DHT22;10126;50.876;4.470;2022-12-18T07:44:43;-3.80;99.90
19928;DHT22;10126;50.876;4.470;2022-12-18T07:46:43;-3.70;99.90
19928;DHT22;10126;50.876;4.470;2022-12-18T07:48:44;-3.70;99.90
19928;DHT22;10126;50.876;4.470;2022-12-18T07:50:45;-3.60;99.90
19928;DHT22;10126;50.876;4.470;2022-12-18T07:52:45;-3.50;99.90
19928;DHT22;10126;50.876;4.470;2022-12-18T07:54:47;-3.50;99.90
19928;DHT22;10126;50.876;4.470;2022-12-18T07:56:50;-3.50;99.90
19928;DHT22;10126;50.876;4.470;2022-12-18T07:58:51;-3.70;99.90
19928;DHT22;10126;50.876;4.470;2022-12-18T08:00:52;-3.70;99.90
19928;DHT22;10126;50.876;4.470;2022-12-18T08:02:52;-3.70;99.90
19928;DHT22;10126;50.876;4.470;2022-12-18T08:04:53;-3.90;99.90
19928;DHT22;10126;50.876;4.470;2022-12-18T08:06:54;-3.90;99.90
19928;DHT22;10126;50.876;4.470;2022-12-18T08:08:55;-3.70;99.90
19928;DHT22;10126;50.876;4.470;2022-12-18T08:10:57;-3.50;99.90
19928;DHT22;10126;50.876;4.470;2022-12-18T08:12:57;-3.60;99.90
19928;DHT22;10126;50.876;4.470;2022-12-18T08:14:58;-3.60;99.90
19928;DHT22;10126;50.876;4.470;2022-12-18T08:16:59;-3.60;99.90
19928;DHT22;10126;50.876;4.470;2022-12-18T08:18:59;-3.50;99.90
19928;DHT22;10126;50.876;4.470;2022-12-18T08:23:13;-3.30;99.90
19928;DHT22;10126;50.876;4.470;2022-12-18T08:25:13;-3.30;99.90
19928;DHT22;10126;50.876;4.470;2022-12-18T08:27:14;-3.10;99.90
19928;DHT22;10126;50.876;4.470;2022-12-18T08:29:14;-3.00;99.90
19928;DHT22;10126;50.876;4.470;2022-12-18T08:31:15;-2.90;99.90
19928;DHT22;10126;50.876;4.470;2022-12-18T08:33:16;-2.80;99.90
19928;DHT22;10126;50.876;4.470;2022-12-18T08:35:17;-2.70;99.90
19928;DHT22;10126;50.876;4.470;2022-12-18T08:37:17;-2.70;99.90
19928;DHT22;10126;50.876;4.470;2022-12-18T08:39:18;-2.40;99.90
19928;DHT22;10126;50.876;4.470;2022-12-18T08:41:19;-2.10;99.90
19928;DHT22;10126;50.876;4.470;2022-12-18T08:43:20;-2.00;99.90
19928;DHT22;10126;50.876;4.470;2022-12-18T08:45:39;-1.90;99.90
19928;DHT22;10126;50.876;4.470;2022-12-18T08:47:40;-1.70;99.90
19928;DHT22;10126;50.876;4.470;2022-12-18T08:49:40;-1.50;99.90
19928;DHT22;10126;50.876;4.470;2022-12-18T08:51:41;-1.50;99.90
19928;DHT22;10126;50.876;4.470;2022-12-18T08:53:42;-1.40;99.90
19928;DHT22;10126;50.876;4.470;2022-12-18T08:55:42;-1.10;99.90
19928;DHT22;10126;50.876;4.470;2022-12-18T08:57:43;-1.10;99.90
19928;DHT22;10126;50.876;4.470;2022-12-18T08:59:48;-1.10;99.90
19928;DHT22;10126;50.876;4.470;2022-12-18T09:01:48;-1.20;99.90
19928;DHT22;10126;50.876;4.470;2022-12-18T09:03:50;-1.10;99.90
19928;DHT22;10126;50.876;4.470;2022-12-18T09:05:51;-1.20;99.90
19928;DHT22;10126;50.876;4.470;2022-12-18T09:07:52;-1.00;99.90
19928;DHT22;10126;50.876;4.470;2022-12-18T09:09:52;-1.00;99.90
19928;DHT22;10126;50.876;4.470;2022-12-18T09:11:53;-0.90;99.90
19928;DHT22;10126;50.876;4.470;2022-12-18T09:13:54;-0.90;99.90
19928;DHT22;10126;50.876;4.470;2022-12-18T09:15:55;-0.80;99.90
19928;DHT22;10126;50.876;4.470;2022-12-18T09:17:56;-0.70;99.90
19928;DHT22;10126;50.876;4.470;2022-12-18T09:19:56;-0.60;99.90
19928;DHT22;10126;50.876;4.470;2022-12-18T09:21:57;-0.50;99.90
19928;DHT22;10126;50.876;4.470;2022-12-18T09:23:58;-0.40;99.90
19928;DHT22;10126;50.876;4.470;2022-12-18T09:25:59;-0.60;99.90
19928;DHT22;10126;50.876;4.470;2022-12-18T09:28:00;-0.50;99.90
19928;DHT22;10126;50.876;4.470;2022-12-18T09:30:01;-0.40;99.90
19928;DHT22;10126;50.876;4.470;2022-12-18T09:32:01;-0.30;99.90
19928;DHT22;10126;50.876;4.470;2022-12-18T09:34:02;-0.10;99.90
19928;DHT22;10126;50.876;4.470;2022-12-18T09:36:04;-0.10;99.90
19928;DHT22;10126;50.876;4.470;2022-12-18T09:38:06;0.10;99.90
19928;DHT22;10126;50.876;4.470;2022-12-18T09:40:16;0.10;99.90
19928;DHT22;10126;50.876;4.470;2022-12-18T09:42:21;0.30;99.90
19928;DHT22;10126;50.876;4.470;2022-12-18T09:46:38;0.30;99.90
19928;DHT22;10126;50.876;4.470;2022-12-18T09:48:44;0.30;99.90
19928;DHT22;10126;50.876;4.470;2022-12-18T09:50:46;0.30;99.90
19928;DHT22;10126;50.876;4.470;2022-12-18T09:52:51;0.30;99.90
19928;DHT22;10126;50.876;4.470;2022-12-18T09:54:58;0.20;99.90
19928;DHT22;10126;50.876;4.470;2022-12-18T09:57:01;0.20;99.90
19928;DHT22;10126;50.876;4.470;2022-12-18T09:59:03;0.40;99.90
19928;DHT22;10126;50.876;4.470;2022-12-18T10:01:11;0.50;99.90
19928;DHT22;10126;50.876;4.470;2022-12-18T10:03:14;0.50;99.90
19928;DHT22;10126;50.876;4.470;2022-12-18T10:08:02;0.50;99.90
19928;DHT22;10126;50.876;4.470;2022-12-18T10:15:40;0.70;99.90
19928;DHT22;10126;50.876;4.470;2022-12-18T10:19:59;0.70;99.90
19928;DHT22;10126;50.876;4.470;2022-12-18T10:27:16;0.10;99.90
19928;DHT22;10126;50.876;4.470;2022-12-18T10:29:17;0.00;99.90
19928;DHT22;10126;50.876;4.470;2022-12-18T10:31:23;0.00;99.90
19928;DHT22;10126;50.876;4.470;2022-12-18T10:33:27;0.00;99.90
19928;DHT22;10126;50.876;4.470;2022-12-18T10:35:28;0.10;99.90
19928;DHT22;10126;50.876;4.470;2022-12-18T10:37:29;0.20;99.90
19928;DHT22;10126;50.876;4.470;2022-12-18T10:39:30;0.20;99.90
19928;DHT22;10126;50.876;4.470;2022-12-18T10:41:31;0.20;99.90
19928;DHT22;10126;50.876;4.470;2022-12-18T10:43:34;0.20;99.90
19928;DHT22;10126;50.876;4.470;2022-12-18T10:45:35;0.30;99.90
19928;DHT22;10126;50.876;4.470;2022-12-18T10:47:36;0.30;99.90
19928;DHT22;10126;50.876;4.470;2022-12-18T10:49:48;0.50;99.90
19928;DHT22;10126;50.876;4.470;2022-12-18T10:51:50;0.60;99.90
19928;DHT22;10126;50.876;4.470;2022-12-18T10:53:57;0.80;99.90
19928;DHT22;10126;50.876;4.470;2022-12-18T10:56:02;0.90;99.90
19928;DHT22;10126;50.876;4.470;2022-12-18T10:58:26;1.00;99.90
19928;DHT22;10126;50.876;4.470;2022-12-18T11:00:29;1.30;99.90
19928;DHT22;10126;50.876;4.470;2022-12-18T11:02:36;1.40;99.90
19928;DHT22;10126;50.876;4.470;2022-12-18T11:04:50;1.60;99.90
19928;DHT22;10126;50.876;4.470;2022-12-18T11:09:17;1.90;99.90
19928;DHT22;10126;50.876;4.470;2022-12-18T11:11:23;1.90;99.90
19928;DHT22;10126;50.876;4.470;2022-12-18T11:13:27;2.00;99.90
19928;DHT22;10126;50.876;4.470;2022-12-18T11:15:29;2.10;99.90
19928;DHT22;10126;50.876;4.470;2022-12-18T11:17:35;2.00;99.90
19928;DHT22;10126;50.876;4.470;2022-12-18T11:19:37;2.00;99.90
19928;DHT22;10126;50.876;4.470;2022-12-18T11:21:41;2.20;99.90
19928;DHT22;10126;50.876;4.470;2022-12-18T11:23:52;2.20;99.90
19928;DHT22;10126;50.876;4.470;2022-12-18T11:26:04;2.30;99.90
19928;DHT22;10126;50.876;4.470;2022-12-18T11:30:43;2.50;99.90
19928;DHT22;10126;50.876;4.470;2022-12-18T11:32:47;2.50;99.90
19928;DHT22;10126;50.876;4.470;2022-12-18T11:34:53;2.50;99.90
19928;DHT22;10126;50.876;4.470;2022-12-18T11:36:55;2.50;99.90
19928;DHT22;10126;50.876;4.470;2022-12-18T11:39:01;2.50;99.90
19928;DHT22;10126;50.876;4.470;2022-12-18T11:43:16;2.40;99.90
19928;DHT22;10126;50.876;4.470;2022-12-18T11:45:29;2.50;99.90
19928;DHT22;10126;50.876;4.470;2022-12-18T11:49:41;2.50;99.90
19928;DHT22;10126;50.876;4.470;2022-12-18T11:51:50;2.70;99.90
19928;DHT22;10126;50.876;4.470;2022-12-18T11:53:52;2.60;99.90
19928;DHT22;10126;50.876;4.470;2022-12-18T12:13:17;3.20;99.90
19928;DHT22;10126;50.876;4.470;2022-12-18T12:15:34;3.00;99.90
19928;DHT22;10126;50.876;4.470;2022-12-18T12:20:07;2.90;99.90
19928;DHT22;10126;50.876;4.470;2022-12-18T12:22:45;2.90;99.90
19928;DHT22;10126;50.876;4.470;2022-12-18T12:26:48;3.00;99.90
19928;DHT22;10126;50.876;4.470;2022-12-18T12:29:01;3.10;99.90
19928;DHT22;10126;50.876;4.470;2022-12-18T12:35:57;3.30;99.90
19928;DHT22;10126;50.876;4.470;2022-12-18T12:38:09;3.40;99.90
19928;DHT22;10126;50.876;4.470;2022-12-18T12:40:17;3.40;99.90
19928;DHT22;10126;50.876;4.470;2022-12-18T12:42:44;3.40;99.90
19928;DHT22;10126;50.876;4.470;2022-12-18T12:45:15;3.30;99.90
19928;DHT22;10126;50.876;4.470;2022-12-18T12:47:27;3.20;99.90
19928;DHT22;10126;50.876;4.470;2022-12-18T12:49:31;3.10;99.90
19928;DHT22;10126;50.876;4.470;2022-12-18T12:51:38;3.30;99.90
19928;DHT22;10126;50.876;4.470;2022-12-18T12:53:41;3.40;99.90
19928;DHT22;10126;50.876;4.470;2022-12-18T12:55:42;3.50;99.90
19928;DHT22;10126;50.876;4.470;2022-12-18T12:57:57;3.50;99.90
19928;DHT22;10126;50.876;4.470;2022-12-18T13:00:06;3.50;99.90
19928;DHT22;10126;50.876;4.470;2022-12-18T13:02:29;3.40;99.90
19928;DHT22;10126;50.876;4.470;2022-12-18T13:04:47;3.60;99.90
19928;DHT22;10126;50.876;4.470;2022-12-18T13:12:25;3.60;99.90
19928;DHT22;10126;50.876;4.470;2022-12-18T13:14:44;3.60;99.90
19928;DHT22;10126;50.876;4.470;2022-12-18T13:16:45;3.40;99.90
19928;DHT22;10126;50.876;4.470;2022-12-18T13:18:50;3.50;99.90
19928;DHT22;10126;50.876;4.470;2022-12-18T13:22:55;3.60;99.90
19928;DHT22;10126;50.876;4.470;2022-12-18T13:24:55;3.80;99.90
19928;DHT22;10126;50.876;4.470;2022-12-18T13:26:56;4.20;99.90
19928;DHT22;10126;50.876;4.470;2022-12-18T13:28:58;4.20;99.90
19928;DHT22;10126;50.876;4.470;2022-12-18T13:31:02;4.20;99.90
19928;DHT22;10126;50.876;4.470;2022-12-18T13:39:32;4.30;99.90
19928;DHT22;10126;50.876;4.470;2022-12-18T13:41:33;4.00;99.90
19928;DHT22;10126;50.876;4.470;2022-12-18T13:43:44;4.10;99.90
19928;DHT22;10126;50.876;4.470;2022-12-18T13:45:49;4.00;99.90
19928;DHT22;10126;50.876;4.470;2022-12-18T13:47:58;4.10;99.90
19928;DHT22;10126;50.876;4.470;2022-12-18T13:50:00;4.10;99.90
19928;DHT22;10126;50.876;4.470;2022-12-18T13:52:02;4.10;99.90
19928;DHT22;10126;50.876;4.470;2022-12-18T13:56:18;3.80;99.90
19928;DHT22;10126;50.876;4.470;2022-12-18T13:58:24;3.80;99.90
19928;DHT22;10126;50.876;4.470;2022-12-18T14:00:27;3.70;99.90
19928;DHT22;10126;50.876;4.470;2022-12-18T14:02:28;3.60;99.90
19928;DHT22;10126;50.876;4.470;2022-12-18T14:04:31;3.60;99.90
19928;DHT22;10126;50.876;4.470;2022-12-18T14:06:32;3.50;99.90
19928;DHT22;10126;50.876;4.470;2022-12-18T14:08:39;3.50;99.90
19928;DHT22;10126;50.876;4.470;2022-12-18T14:10:44;3.30;99.90
19928;DHT22;10126;50.876;4.470;2022-12-18T14:12:50;3.40;99.90
19928;DHT22;10126;50.876;4.470;2022-12-18T14:14:57;3.30;99.90
19928;DHT22;10126;50.876;4.470;2022-12-18T14:16:59;3.30;99.90
19928;DHT22;10126;50.876;4.470;2022-12-18T14:18:59;3.30;99.90
19928;DHT22;10126;50.876;4.470;2022-12-18T14:21:02;3.40;99.90
19928;DHT22;10126;50.876;4.470;2022-12-18T14:23:04;3.50;99.90
19928;DHT22;10126;50.876;4.470;2022-12-18T14:25:26;3.60;99.90
19928;DHT22;10126;50.876;4.470;2022-12-18T14:27:27;3.60;99.90
19928;DHT22;10126;50.876;4.470;2022-12-18T14:29:29;3.60;99.90
19928;DHT22;10126;50.876;4.470;2022-12-18T14:31:31;3.40;99.90
19928;DHT22;10126;50.876;4.470;2022-12-18T14:33:32;3.30;99.90
19928;DHT22;10126;50.876;4.470;2022-12-18T14:35:38;3.20;99.90
19928;DHT22;10126;50.876;4.470;2022-12-18T14:37:39;2.90;99.90
19928;DHT22;10126;50.876;4.470;2022-12-18T14:39:40;2.70;99.90